createdAt,value
2022-11-28T00:00:33.565Z,2.05
2022-11-28T00:01:43.620Z,2.10
2022-11-28T00:02:50.166Z,2.03
2022-11-28T00:03:53.030Z,2.20
2022-11-28T00:04:56.850Z,2.05
2022-11-28T00:06:07.902Z,1.63
2022-11-28T00:07:12.401Z,2.03
2022-11-28T00:08:16.518Z,2.00
2022-11-28T00:09:20.621Z,2.00
2022-11-28T00:10:24.007Z,2.05
2022-11-28T00:11:27.619Z,1.38
2022-11-28T00:12:30.576Z,2.05
2022-11-28T00:13:33.960Z,1.48
2022-11-28T00:14:37.144Z,1.63
2022-11-28T00:15:40.156Z,2.00
2022-11-28T00:16:43.474Z,1.98
2022-11-28T00:17:46.379Z,1.85
2022-11-28T00:18:53.280Z,1.70
2022-11-28T00:19:56.455Z,1.90
2022-11-28T00:21:07.714Z,1.55
2022-11-28T00:22:11.640Z,1.65
2022-11-28T00:23:15.525Z,1.83
2022-11-28T00:24:19.290Z,1.63
2022-11-28T00:25:23.189Z,1.80
2022-11-28T00:26:32.395Z,2.08
2022-11-28T00:27:37.828Z,2.10
2022-11-28T00:28:40.923Z,2.15
2022-11-28T00:29:43.664Z,2.20
2022-11-28T00:30:46.774Z,1.95
2022-11-28T00:31:51.394Z,1.90
2022-11-28T00:32:54.265Z,1.77
2022-11-28T00:33:58.229Z,1.85
2022-11-28T00:35:01.243Z,2.25
2022-11-28T00:36:05.653Z,2.65
2022-11-28T00:37:10.265Z,1.80
2022-11-28T00:38:14.070Z,1.42
2022-11-28T00:39:18.174Z,2.03
2022-11-28T00:40:21.034Z,1.83
2022-11-28T00:41:27.191Z,1.83
2022-11-28T00:42:30.062Z,2.20
2022-11-28T00:43:34.482Z,1.90
2022-11-28T00:44:38.100Z,2.38
2022-11-28T00:45:40.967Z,1.95
2022-11-28T00:46:43.997Z,1.85
2022-11-28T00:47:50.598Z,1.67
2022-11-28T00:48:54.166Z,1.50
2022-11-28T00:49:58.396Z,1.85
2022-11-28T00:51:13.495Z,2.13
2022-11-28T00:52:16.312Z,1.77
2022-11-28T00:53:19.649Z,1.90
2022-11-28T00:54:22.669Z,2.15
2022-11-28T00:55:25.955Z,1.63
2022-11-28T00:56:35.044Z,1.77
2022-11-28T00:57:38.361Z,2.03
2022-11-28T00:58:42.359Z,1.90
2022-11-28T00:59:46.211Z,1.90
2022-11-28T01:00:49.264Z,1.80
2022-11-28T01:01:54.351Z,1.58
2022-11-28T01:02:57.502Z,2.35
2022-11-28T01:04:04.220Z,2.03
2022-11-28T01:05:07.904Z,1.95
2022-11-28T01:06:12.311Z,2.08
2022-11-28T01:07:15.927Z,1.65
2022-11-28T01:08:18.875Z,2.28
2022-11-28T01:09:25.033Z,2.00
2022-11-28T01:10:27.900Z,1.95
2022-11-28T01:11:31.593Z,1.88
2022-11-28T01:12:34.365Z,1.75
2022-11-28T01:13:37.355Z,1.95
2022-11-28T01:14:42.248Z,1.92
2022-11-28T01:15:45.448Z,2.15
2022-11-28T01:16:48.610Z,1.98
2022-11-28T01:17:51.603Z,2.20
2022-11-28T01:18:54.887Z,2.05
2022-11-28T01:19:58.889Z,1.90
2022-11-28T01:21:01.639Z,1.92
2022-11-28T01:22:06.786Z,1.98
2022-11-28T01:23:09.762Z,1.85
2022-11-28T01:24:13.150Z,1.95
2022-11-28T01:25:15.817Z,2.00
2022-11-28T01:26:21.816Z,1.95
2022-11-28T01:27:24.738Z,1.95
2022-11-28T01:28:27.504Z,2.10
2022-11-28T01:29:32.010Z,2.33
2022-11-28T01:30:34.800Z,2.20
2022-11-28T01:31:37.555Z,1.73
2022-11-28T01:32:40.248Z,1.83
2022-11-28T01:33:43.931Z,1.95
2022-11-28T01:34:47.008Z,2.10
2022-11-28T01:35:57.664Z,2.40
2022-11-28T01:37:00.809Z,2.05
2022-11-28T01:38:03.426Z,2.20
2022-11-28T01:39:07.933Z,2.30
2022-11-28T01:40:14.386Z,2.15
2022-11-28T01:41:21.251Z,1.83
2022-11-28T01:42:24.536Z,2.05
2022-11-28T01:43:27.448Z,2.15
2022-11-28T01:44:30.449Z,1.98
2022-11-28T01:45:33.985Z,1.92
2022-11-28T01:46:37.600Z,2.67
2022-11-28T01:47:41.109Z,2.05
2022-11-28T01:48:43.829Z,2.28
2022-11-28T01:49:48.900Z,2.15
2022-11-28T01:50:54.906Z,1.90
2022-11-28T01:52:02.895Z,2.20
2022-11-28T01:53:10.478Z,2.17
2022-11-28T01:54:17.045Z,2.15
2022-11-28T01:55:23.911Z,1.98
2022-11-28T01:56:35.690Z,2.22
2022-11-28T01:57:38.564Z,2.17
2022-11-28T01:58:47.071Z,2.47
2022-11-28T02:00:03.373Z,1.70
2022-11-28T02:01:17.146Z,1.95
2022-11-28T02:02:41.569Z,1.63
2022-11-28T02:03:46.525Z,1.50
2022-11-28T02:04:51.031Z,2.10
2022-11-28T02:05:54.698Z,2.00
2022-11-28T02:06:57.774Z,1.80
2022-11-28T02:08:01.099Z,1.80
2022-11-28T02:09:04.342Z,2.28
2022-11-28T02:10:10.573Z,1.77
2022-11-28T02:11:27.246Z,2.10
2022-11-28T02:12:33.036Z,2.05
2022-11-28T02:14:01.335Z,1.92
2022-11-28T02:15:37.595Z,2.00
2022-11-28T02:16:46.225Z,1.73
2022-11-28T02:17:58.566Z,2.17
2022-11-28T02:19:21.053Z,2.17
2022-11-28T02:20:45.128Z,2.22
2022-11-28T02:22:01.266Z,1.70
2022-11-28T02:23:25.695Z,2.05
2022-11-28T02:24:46.531Z,2.00
2022-11-28T02:26:31.799Z,2.42
2022-11-28T02:27:39.016Z,2.00
2022-11-28T02:29:28.942Z,1.65
2022-11-28T02:30:46.356Z,1.67
2022-11-28T02:32:19.041Z,2.00
2022-11-28T02:33:34.360Z,1.55
2022-11-28T02:35:06.058Z,1.98
2022-11-28T02:36:15.689Z,1.50
2022-11-28T02:37:27.369Z,1.80
2022-11-28T02:38:52.976Z,1.70
2022-11-28T02:40:21.540Z,1.50
2022-11-28T02:41:42.041Z,1.73
2022-11-28T02:43:06.232Z,1.42
2022-11-28T02:44:41.667Z,1.60
2022-11-28T02:45:56.694Z,1.73
2022-11-28T02:46:59.611Z,1.60
2022-11-28T02:48:08.604Z,1.48
2022-11-28T02:49:24.378Z,1.48
2022-11-28T02:50:34.728Z,1.48
2022-11-28T02:51:45.180Z,1.60
2022-11-28T02:52:59.267Z,1.60
2022-11-28T02:54:04.342Z,1.40
2022-11-28T02:55:08.959Z,1.63
2022-11-28T02:56:13.035Z,2.45
2022-11-28T02:57:17.898Z,1.80
2022-11-28T02:58:20.654Z,1.63
2022-11-28T02:59:26.541Z,1.55
2022-11-28T03:00:35.845Z,1.67
2022-11-28T03:01:39.478Z,1.77
2022-11-28T03:02:44.114Z,1.88
2022-11-28T03:03:57.605Z,2.42
2022-11-28T03:05:14.558Z,2.35
2022-11-28T03:06:58.801Z,2.63
2022-11-28T03:08:14.709Z,2.45
2022-11-28T03:09:35.371Z,2.15
2022-11-28T03:11:04.152Z,2.08
2022-11-28T03:12:31.815Z,2.67
2022-11-28T03:13:49.630Z,2.50
2022-11-28T03:14:59.510Z,2.78
2022-11-28T03:16:03.345Z,2.83
2022-11-28T03:17:18.924Z,2.42
2022-11-28T03:18:29.905Z,3.20
2022-11-28T03:19:41.685Z,3.20
2022-11-28T03:20:49.475Z,2.72
2022-11-28T03:21:57.881Z,3.63
2022-11-28T03:23:00.481Z,2.63
2022-11-28T03:24:23.291Z,2.78
2022-11-28T03:25:55.693Z,2.90
2022-11-28T03:27:10.919Z,2.67
2022-11-28T03:28:31.711Z,2.38
2022-11-28T03:29:37.864Z,2.60
2022-11-28T03:30:49.323Z,2.22
2022-11-28T03:32:00.868Z,2.33
2022-11-28T03:33:05.792Z,2.28
2022-11-28T03:34:12.306Z,2.45
2022-11-28T03:35:21.521Z,2.28
2022-11-28T03:36:33.100Z,3.42
2022-11-28T03:37:40.478Z,2.55
2022-11-28T03:39:55.546Z,2.20
2022-11-28T03:41:05.412Z,2.25
2022-11-28T03:42:29.970Z,2.03
2022-11-28T03:43:38.265Z,2.30
2022-11-28T03:44:50.458Z,1.92
2022-11-28T03:46:00.325Z,2.03
2022-11-28T03:47:06.014Z,2.00
2022-11-28T03:48:31.172Z,2.42
2022-11-28T03:49:42.336Z,2.08
2022-11-28T03:50:56.066Z,1.90
2022-11-28T03:52:06.480Z,1.85
2022-11-28T03:53:28.196Z,1.98
2022-11-28T03:54:37.828Z,2.15
2022-11-28T03:55:54.116Z,1.73
2022-11-28T03:57:04.470Z,2.10
2022-11-28T03:58:31.473Z,1.85
2022-11-28T03:59:38.972Z,1.80
2022-11-28T04:02:21.090Z,1.88
2022-11-28T04:03:39.018Z,1.90
2022-11-28T04:04:53.872Z,1.40
2022-11-28T04:06:07.090Z,1.77
2022-11-28T04:07:21.824Z,1.60
2022-11-28T04:08:30.145Z,1.63
2022-11-28T04:09:39.468Z,1.65
2022-11-28T04:10:52.280Z,1.52
2022-11-28T04:12:01.460Z,1.98
2022-11-28T04:13:22.069Z,1.70
2022-11-28T04:14:32.779Z,1.83
2022-11-28T04:15:44.948Z,1.77
2022-11-28T04:16:56.307Z,1.88
2022-11-28T04:18:30.934Z,1.95
2022-11-28T04:19:57.456Z,1.83
2022-11-28T04:21:03.710Z,1.98
2022-11-28T04:22:20.430Z,3.22
2022-11-28T04:23:24.925Z,2.15
2022-11-28T04:24:38.546Z,2.97
2022-11-28T04:25:46.746Z,2.33
2022-11-28T04:26:54.300Z,3.08
2022-11-28T04:28:09.800Z,2.83
2022-11-28T04:29:16.260Z,3.20
2022-11-28T04:30:19.588Z,2.80
2022-11-28T04:31:24.814Z,2.90
2022-11-28T04:32:31.795Z,3.38
2022-11-28T04:33:38.902Z,2.85
2022-11-28T04:34:48.036Z,3.17
2022-11-28T04:35:54.340Z,3.08
2022-11-28T04:37:02.455Z,3.00
2022-11-28T04:38:11.150Z,3.05
2022-11-28T04:39:19.509Z,3.10
2022-11-28T04:40:24.834Z,2.97
2022-11-28T04:41:43.774Z,3.00
2022-11-28T04:42:53.148Z,2.75
2022-11-28T04:44:10.421Z,2.63
2022-11-28T04:45:18.108Z,2.65
2022-11-28T04:47:35.723Z,2.17
2022-11-28T04:48:38.813Z,2.42
2022-11-28T04:49:41.790Z,3.03
2022-11-28T04:50:52.857Z,2.58
2022-11-28T04:52:17.235Z,3.22
2022-11-28T04:53:29.326Z,2.78
2022-11-28T04:55:17.975Z,2.33
2022-11-28T04:56:27.093Z,2.60
2022-11-28T04:57:42.152Z,2.47
2022-11-28T04:58:49.227Z,2.17
2022-11-28T04:59:52.862Z,2.50
2022-11-28T05:00:56.560Z,2.45
2022-11-28T05:02:04.352Z,2.70
2022-11-28T05:03:08.400Z,2.33
2022-11-28T05:04:11.863Z,2.55
2022-11-28T05:05:21.623Z,2.95
2022-11-28T05:06:30.546Z,2.40
2022-11-28T05:07:33.351Z,2.45
2022-11-28T05:08:37.959Z,2.42
2022-11-28T05:09:40.796Z,2.67
2022-11-28T05:10:43.918Z,2.33
2022-11-28T05:11:46.563Z,2.38
2022-11-28T05:12:50.202Z,2.20
2022-11-28T05:13:53.955Z,2.00
2022-11-28T05:14:57.343Z,2.25
2022-11-28T05:16:03.855Z,2.15
2022-11-28T05:17:07.985Z,2.15
2022-11-28T05:18:12.020Z,1.75
2022-11-28T05:19:17.637Z,1.88
2022-11-28T05:20:20.600Z,2.45
2022-11-28T05:21:23.580Z,2.10
2022-11-28T05:22:26.920Z,1.90
2022-11-28T05:23:29.738Z,2.10
2022-11-28T05:24:32.617Z,1.95
2022-11-28T05:25:37.671Z,2.58
2022-11-28T05:26:43.249Z,3.00
2022-11-28T05:27:51.166Z,1.95
2022-11-28T05:28:57.452Z,2.15
2022-11-28T05:30:00.295Z,1.55
2022-11-28T05:31:03.990Z,2.72
2022-11-28T05:32:08.446Z,2.03
2022-11-28T05:33:11.320Z,2.13
2022-11-28T05:34:14.247Z,1.88
2022-11-28T05:35:17.119Z,1.95
2022-11-28T05:36:19.903Z,1.95
2022-11-28T05:37:23.379Z,1.80
2022-11-28T05:38:26.049Z,1.83
2022-11-28T05:39:28.830Z,1.90
2022-11-28T05:40:31.517Z,1.92
2022-11-28T05:41:34.775Z,1.90
2022-11-28T05:42:37.647Z,1.55
2022-11-28T05:43:40.602Z,1.90
2022-11-28T05:44:43.676Z,1.63
2022-11-28T05:45:46.707Z,1.90
2022-11-28T05:46:51.300Z,1.80
2022-11-28T05:47:54.216Z,1.65
2022-11-28T05:48:58.406Z,1.70
2022-11-28T05:50:01.247Z,2.15
2022-11-28T05:51:07.406Z,1.83
2022-11-28T05:52:10.157Z,1.73
2022-11-28T05:53:15.434Z,1.45
2022-11-28T05:54:18.138Z,1.65
2022-11-28T05:55:21.045Z,1.58
2022-11-28T05:56:24.328Z,1.42
2022-11-28T05:57:27.202Z,1.25
2022-11-28T05:58:30.180Z,1.35
2022-11-28T05:59:33.449Z,1.65
2022-11-28T06:00:36.745Z,1.45
2022-11-28T06:01:41.255Z,2.20
2022-11-28T06:02:45.873Z,1.05
2022-11-28T06:03:49.059Z,1.65
2022-11-28T06:04:52.091Z,1.45
2022-11-28T06:05:57.055Z,1.50
2022-11-28T06:06:59.862Z,1.30
2022-11-28T06:08:02.708Z,1.92
2022-11-28T06:09:06.500Z,2.17
2022-11-28T06:10:09.897Z,1.25
2022-11-28T06:11:15.249Z,1.33
2022-11-28T06:12:18.049Z,1.60
2022-11-28T06:13:21.578Z,1.17
2022-11-28T06:14:24.861Z,1.30
2022-11-28T06:15:27.735Z,0.90
2022-11-28T06:16:31.786Z,1.40
2022-11-28T06:17:34.997Z,1.35
2022-11-28T06:18:40.189Z,1.10
2022-11-28T06:19:43.159Z,1.42
2022-11-28T06:20:46.052Z,1.60
2022-11-28T06:21:50.617Z,1.50
2022-11-28T06:22:53.910Z,1.60
2022-11-28T06:24:00.997Z,1.73
2022-11-28T06:25:05.898Z,1.98
2022-11-28T06:26:12.046Z,1.73
2022-11-28T06:27:15.017Z,1.40
2022-11-28T06:28:17.892Z,1.67
2022-11-28T06:29:21.178Z,1.50
2022-11-28T06:30:23.952Z,1.17
2022-11-28T06:31:28.901Z,1.58
2022-11-28T06:32:31.743Z,1.75
2022-11-28T06:33:34.481Z,1.63
2022-11-28T06:34:37.799Z,1.70
2022-11-28T06:35:40.827Z,1.48
2022-11-28T06:36:44.795Z,2.63
2022-11-28T06:37:47.528Z,1.25
2022-11-28T06:38:50.299Z,1.52
2022-11-28T06:39:52.981Z,1.60
2022-11-28T06:41:02.310Z,1.48
2022-11-28T06:42:05.144Z,1.40
2022-11-28T06:43:08.006Z,2.13
2022-11-28T06:44:15.033Z,1.40
2022-11-28T06:45:19.274Z,1.45
2022-11-28T06:46:22.843Z,1.30
2022-11-28T06:47:25.627Z,1.88
2022-11-28T06:48:28.683Z,1.20
2022-11-28T06:49:31.696Z,1.63
2022-11-28T06:50:34.509Z,1.48
2022-11-28T06:51:38.880Z,1.27
2022-11-28T06:52:41.793Z,1.20
2022-11-28T06:53:44.994Z,1.10
2022-11-28T06:54:47.743Z,1.35
2022-11-28T06:55:50.587Z,1.38
2022-11-28T06:56:53.458Z,1.42
2022-11-28T06:57:56.310Z,1.35
2022-11-28T06:59:00.491Z,1.33
2022-11-28T07:00:06.195Z,1.42
2022-11-28T07:01:14.396Z,1.55
2022-11-28T07:02:17.780Z,1.30
2022-11-28T07:03:20.552Z,1.42
2022-11-28T07:04:23.642Z,1.20
2022-11-28T07:05:31.244Z,1.52
2022-11-28T07:06:34.484Z,1.42
2022-11-28T07:07:50.240Z,1.30
2022-11-28T07:08:58.847Z,0.93
2022-11-28T07:10:02.103Z,1.40
2022-11-28T07:11:15.394Z,1.08
2022-11-28T07:12:18.332Z,1.42
2022-11-28T07:13:21.040Z,2.13
2022-11-28T07:14:24.479Z,0.93
2022-11-28T07:15:27.868Z,1.23
2022-11-28T07:16:33.027Z,1.33
2022-11-28T07:17:36.862Z,2.47
2022-11-28T07:18:40.250Z,0.90
2022-11-28T07:19:43.466Z,1.60
2022-11-28T07:20:46.920Z,1.70
2022-11-28T07:21:50.834Z,1.40
2022-11-28T07:22:53.590Z,1.80
2022-11-28T07:23:59.726Z,1.50
2022-11-28T07:25:02.511Z,0.90
2022-11-28T07:26:07.435Z,1.10
2022-11-28T07:27:10.208Z,1.00
2022-11-28T07:28:13.460Z,1.20
2022-11-28T07:29:18.138Z,1.23
2022-11-28T07:30:21.241Z,1.10
2022-11-28T07:31:31.964Z,0.90
2022-11-28T07:32:36.045Z,0.90
2022-11-28T07:33:40.278Z,1.10
2022-11-28T07:34:45.558Z,1.45
2022-11-28T07:35:51.635Z,2.30
2022-11-28T07:36:54.401Z,1.20
2022-11-28T07:37:57.969Z,1.17
2022-11-28T07:39:02.705Z,1.17
2022-11-28T07:40:06.193Z,1.30
2022-11-28T07:41:12.068Z,1.20
2022-11-28T07:42:15.023Z,1.02
2022-11-28T07:43:19.224Z,1.70
2022-11-28T07:44:22.068Z,1.20
2022-11-28T07:45:41.637Z,1.35
2022-11-28T07:46:48.268Z,0.82
2022-11-28T07:47:51.124Z,1.02
2022-11-28T07:48:54.038Z,1.40
2022-11-28T07:49:57.361Z,1.33
2022-11-28T07:51:00.258Z,1.23
2022-11-28T07:52:02.980Z,1.35
2022-11-28T07:53:07.420Z,0.88
2022-11-28T07:54:11.417Z,0.88
2022-11-28T07:55:15.179Z,0.85
2022-11-28T07:56:23.924Z,1.25
2022-11-28T07:57:26.521Z,1.00
2022-11-28T07:58:29.346Z,1.30
2022-11-28T07:59:32.330Z,1.27
2022-11-28T08:00:35.418Z,1.60
2022-11-28T08:01:38.853Z,1.40
2022-11-28T08:02:41.780Z,1.23
2022-11-28T08:03:45.431Z,1.10
2022-11-28T08:04:52.742Z,1.02
2022-11-28T08:06:03.069Z,1.10
2022-11-28T08:07:06.178Z,1.17
2022-11-28T08:08:10.964Z,1.15
2022-11-28T08:09:14.280Z,1.33
2022-11-28T08:10:18.506Z,1.23
2022-11-28T08:11:23.128Z,1.00
2022-11-28T08:12:25.876Z,1.20
2022-11-28T08:13:29.563Z,1.25
2022-11-28T08:14:32.392Z,0.75
2022-11-28T08:15:37.817Z,1.25
2022-11-28T08:16:45.368Z,0.98
2022-11-28T08:17:48.242Z,1.67
2022-11-28T08:18:52.743Z,1.27
2022-11-28T08:19:55.518Z,0.98
2022-11-28T08:21:15.721Z,2.15
2022-11-28T08:22:18.457Z,1.02
2022-11-28T08:23:21.950Z,1.15
2022-11-28T08:24:24.971Z,1.15
2022-11-28T08:25:27.980Z,1.48
2022-11-28T08:26:33.683Z,0.95
2022-11-28T08:27:36.831Z,1.23
2022-11-28T08:28:40.984Z,0.77
2022-11-28T08:29:44.251Z,0.95
2022-11-28T08:30:48.141Z,1.77
2022-11-28T08:31:50.888Z,1.13
2022-11-28T08:32:53.632Z,1.05
2022-11-28T08:33:59.881Z,1.15
2022-11-28T08:35:02.973Z,1.25
2022-11-28T08:36:10.575Z,1.10
2022-11-28T08:37:13.659Z,0.90
2022-11-28T08:38:16.527Z,0.88
2022-11-28T08:39:24.504Z,0.90
2022-11-28T08:40:28.523Z,1.00
2022-11-28T08:41:31.399Z,1.33
2022-11-28T08:42:34.154Z,1.00
2022-11-28T08:43:38.274Z,1.15
2022-11-28T08:44:41.044Z,1.08
2022-11-28T08:45:44.964Z,1.20
2022-11-28T08:46:47.705Z,0.93
2022-11-28T08:47:50.452Z,1.08
2022-11-28T08:48:53.264Z,1.10
2022-11-28T08:49:56.372Z,1.02
2022-11-28T08:50:59.156Z,1.00
2022-11-28T08:52:03.416Z,1.25
2022-11-28T08:53:08.951Z,1.17
2022-11-28T08:54:13.159Z,1.05
2022-11-28T08:55:15.952Z,1.08
2022-11-28T08:56:19.950Z,1.17
2022-11-28T08:57:22.701Z,2.03
2022-11-28T08:58:25.576Z,1.20
2022-11-28T08:59:28.700Z,0.93
2022-11-28T09:00:32.216Z,1.15
2022-11-28T09:01:35.002Z,0.98
2022-11-28T09:02:37.893Z,1.73
2022-11-28T09:03:41.574Z,1.20
2022-11-28T09:04:44.726Z,0.88
2022-11-28T09:05:48.765Z,1.08
2022-11-28T09:06:51.806Z,1.58
2022-11-28T09:07:57.959Z,1.20
2022-11-28T09:09:03.259Z,1.63
2022-11-28T09:10:06.930Z,2.03
2022-11-28T09:11:11.364Z,0.77
2022-11-28T09:12:14.111Z,0.88
2022-11-28T09:13:17.944Z,2.05
2022-11-28T09:14:20.793Z,1.00
2022-11-28T09:15:23.469Z,1.02
2022-11-28T09:16:26.388Z,1.08
2022-11-28T09:17:29.387Z,0.80
2022-11-28T09:18:32.231Z,0.82
2022-11-28T09:19:35.036Z,0.85
2022-11-28T09:20:37.972Z,1.50
2022-11-28T09:21:41.809Z,1.38
2022-11-28T09:22:44.898Z,0.85
2022-11-28T09:23:47.801Z,1.15
2022-11-28T09:24:51.768Z,1.00
2022-11-28T09:25:54.686Z,1.38
2022-11-28T09:26:57.562Z,1.15
2022-11-28T09:28:01.560Z,1.23
2022-11-28T09:29:04.550Z,1.02
2022-11-28T09:30:08.898Z,0.95
2022-11-28T09:31:13.796Z,0.60
2022-11-28T09:32:17.309Z,1.00
2022-11-28T09:33:20.067Z,1.58
2022-11-28T09:34:22.803Z,0.82
2022-11-28T09:35:25.688Z,0.93
2022-11-28T09:36:30.710Z,0.95
2022-11-28T09:37:33.578Z,1.08
2022-11-28T09:38:37.206Z,1.25
2022-11-28T09:40:04.785Z,1.35
2022-11-28T09:41:22.196Z,1.52
2022-11-28T09:42:35.379Z,0.95
2022-11-28T09:43:54.593Z,0.80
2022-11-28T09:45:07.873Z,1.13
2022-11-28T09:46:20.407Z,0.90
2022-11-28T09:47:30.223Z,1.02
2022-11-28T09:48:40.458Z,0.73
2022-11-28T09:49:52.874Z,1.13
2022-11-28T09:51:01.658Z,0.90
2022-11-28T09:52:24.093Z,1.13
2022-11-28T09:53:42.235Z,1.10
2022-11-28T09:55:13.368Z,0.70
2022-11-28T09:57:40.689Z,1.00
2022-11-28T09:58:51.945Z,1.23
2022-11-28T09:59:54.825Z,1.50
2022-11-28T10:01:18.027Z,1.10
2022-11-28T10:02:32.771Z,0.73
2022-11-28T10:03:38.826Z,1.13
2022-11-28T10:04:54.937Z,1.52
2022-11-28T10:06:15.683Z,1.05
2022-11-28T10:07:45.686Z,0.93
2022-11-28T10:08:52.079Z,1.73
2022-11-28T10:10:28.575Z,0.75
2022-11-28T10:11:39.574Z,1.20
2022-11-28T10:12:54.490Z,0.85
2022-11-28T10:14:08.409Z,1.35
2022-11-28T10:15:11.427Z,1.15
2022-11-28T10:16:20.709Z,1.15
2022-11-28T10:17:34.396Z,1.40
2022-11-28T10:18:51.629Z,1.23
2022-11-28T10:20:04.251Z,0.98
2022-11-28T10:21:21.958Z,1.08
2022-11-28T10:22:56.718Z,1.20
2022-11-28T10:24:04.341Z,1.73
2022-11-28T10:25:29.551Z,1.05
2022-11-28T10:26:37.244Z,1.50
2022-11-28T10:27:41.513Z,1.35
2022-11-28T10:28:48.717Z,1.25
2022-11-28T10:29:54.220Z,1.30
2022-11-28T10:31:07.511Z,1.13
2022-11-28T10:32:16.387Z,1.13
2022-11-28T10:33:27.148Z,0.93
2022-11-28T10:34:40.597Z,1.48
2022-11-28T10:35:47.715Z,1.35
2022-11-28T10:37:14.226Z,0.93
2022-11-28T10:38:17.862Z,1.13
2022-11-28T10:39:20.570Z,1.35
2022-11-28T10:40:35.184Z,1.00
2022-11-28T10:41:44.359Z,1.58
2022-11-28T10:42:58.488Z,1.17
2022-11-28T10:44:07.639Z,0.90
2022-11-28T10:45:59.743Z,1.10
2022-11-28T10:47:37.269Z,1.45
2022-11-28T10:49:05.448Z,1.38
2022-11-28T10:50:33.919Z,0.90
2022-11-28T10:51:51.581Z,1.13
2022-11-28T10:53:09.127Z,1.00
2022-11-28T10:54:48.414Z,1.00
2022-11-28T10:55:54.202Z,1.38
2022-11-28T10:57:21.595Z,0.98
2022-11-28T10:58:31.621Z,0.93
2022-11-28T10:59:56.751Z,1.85
2022-11-28T11:01:00.595Z,1.23
2022-11-28T11:02:41.370Z,1.27
2022-11-28T11:03:44.338Z,1.10
2022-11-28T11:04:47.248Z,0.98
2022-11-28T11:05:49.860Z,1.30
2022-11-28T11:07:15.049Z,1.10
2022-11-28T11:08:23.766Z,0.93
2022-11-28T11:09:26.639Z,1.15
2022-11-28T11:10:58.188Z,2.30
2022-11-28T11:12:01.246Z,1.33
2022-11-28T11:13:34.701Z,1.00
2022-11-28T11:14:43.222Z,1.15
2022-11-28T11:15:49.461Z,1.63
2022-11-28T11:16:56.670Z,1.50
2022-11-28T11:18:20.024Z,1.23
2022-11-28T11:19:33.091Z,1.02
2022-11-28T11:20:39.313Z,1.40
2022-11-28T11:21:42.376Z,0.85
2022-11-28T11:22:55.744Z,1.30
2022-11-28T11:24:18.687Z,1.75
2022-11-28T11:25:21.330Z,1.60
2022-11-28T11:26:27.712Z,0.95
2022-11-28T11:27:30.739Z,1.15
2022-11-28T11:28:43.713Z,1.35
2022-11-28T11:29:50.269Z,1.73
2022-11-28T11:31:06.020Z,1.70
2022-11-28T11:32:25.337Z,1.42
2022-11-28T11:34:55.498Z,1.63
2022-11-28T11:35:58.251Z,1.38
2022-11-28T11:37:21.092Z,1.50
2022-11-28T11:38:23.703Z,1.20
2022-11-28T11:39:26.554Z,1.30
2022-11-28T11:40:30.223Z,1.23
2022-11-28T11:41:33.783Z,2.05
2022-11-28T11:42:36.485Z,1.60
2022-11-28T11:43:39.340Z,1.23
2022-11-28T11:44:42.050Z,1.30
2022-11-28T11:45:48.461Z,1.30
2022-11-28T11:46:54.850Z,1.50
2022-11-28T11:47:58.287Z,1.10
2022-11-28T11:49:00.929Z,0.98
2022-11-28T11:50:05.922Z,2.00
2022-11-28T11:51:31.027Z,1.15
2022-11-28T11:52:35.283Z,1.20
2022-11-28T11:53:37.993Z,1.40
2022-11-28T11:54:58.536Z,1.20
2022-11-28T11:56:03.849Z,1.65
2022-11-28T11:57:31.945Z,1.15
2022-11-28T11:58:37.509Z,2.38
2022-11-28T11:59:49.608Z,1.20
2022-11-28T12:00:56.721Z,1.42
2022-11-28T12:02:31.872Z,1.50
2022-11-28T12:03:58.823Z,1.85
2022-11-28T12:05:18.209Z,1.48
2022-11-28T12:06:38.995Z,1.58
2022-11-28T12:08:01.994Z,1.63
2022-11-28T12:09:21.224Z,1.40
2022-11-28T12:10:28.433Z,1.48
2022-11-28T12:11:36.286Z,1.67
2022-11-28T12:12:39.694Z,1.90
2022-11-28T12:13:42.902Z,1.52
2022-11-28T12:14:48.555Z,1.30
2022-11-28T12:16:15.235Z,1.60
2022-11-28T12:17:47.910Z,1.88
2022-11-28T12:19:01.446Z,1.90
2022-11-28T12:20:22.615Z,1.60
2022-11-28T12:21:37.044Z,1.88
2022-11-28T12:23:24.094Z,2.10
2022-11-28T12:24:43.073Z,1.60
2022-11-28T12:25:57.452Z,1.55
2022-11-28T12:27:16.891Z,1.63
2022-11-28T12:28:47.412Z,1.55
2022-11-28T12:30:15.866Z,1.50
2022-11-28T12:31:43.159Z,2.03
2022-11-28T12:33:13.396Z,1.42
2022-11-28T12:34:46.150Z,1.65
2022-11-28T12:36:12.133Z,1.83
2022-11-28T12:37:18.327Z,1.23
2022-11-28T12:38:56.325Z,1.65
2022-11-28T12:40:37.443Z,2.15
2022-11-28T12:42:15.638Z,1.67
2022-11-28T12:43:34.971Z,1.42
2022-11-28T12:45:09.054Z,1.95
2022-11-28T12:46:20.785Z,1.77
2022-11-28T12:47:41.884Z,1.73
2022-11-28T12:49:14.499Z,1.40
2022-11-28T12:50:52.780Z,1.50
2022-11-28T12:52:07.242Z,1.95
2022-11-28T12:53:28.500Z,1.38
2022-11-28T12:54:49.234Z,1.83
2022-11-28T12:56:02.968Z,2.10
2022-11-28T12:57:33.663Z,1.77
2022-11-28T12:58:43.514Z,2.80
2022-11-28T13:00:08.696Z,2.35
2022-11-28T13:01:39.674Z,1.67
2022-11-28T13:02:57.536Z,1.90
2022-11-28T13:04:05.964Z,2.00
2022-11-28T13:05:47.428Z,2.03
2022-11-28T13:06:56.359Z,1.55
2022-11-28T13:08:34.499Z,2.05
2022-11-28T13:09:55.013Z,1.63
2022-11-28T13:11:15.498Z,1.70
2022-11-28T13:12:18.180Z,2.00
2022-11-28T13:13:28.357Z,3.30
2022-11-28T13:14:59.444Z,2.22
2022-11-28T13:16:26.430Z,2.35
2022-11-28T13:17:42.916Z,2.22
2022-11-28T13:19:04.833Z,2.10
2022-11-28T13:20:13.544Z,2.35
2022-11-28T13:21:36.577Z,2.47
2022-11-28T13:22:55.856Z,1.75
2022-11-28T13:25:19.278Z,2.55
2022-11-28T13:27:05.742Z,2.40
2022-11-28T13:28:40.981Z,2.50
2022-11-28T13:29:53.979Z,2.50
2022-11-28T13:31:21.649Z,2.15
2022-11-28T13:32:46.295Z,2.42
2022-11-28T13:33:51.609Z,2.05
2022-11-28T13:34:55.218Z,3.08
2022-11-28T13:36:00.447Z,2.72
2022-11-28T13:39:11.145Z,2.05
2022-11-28T13:40:14.092Z,2.20
2022-11-28T13:42:00.896Z,2.53
2022-11-28T13:44:21.146Z,2.30
2022-11-28T13:45:34.706Z,2.53
2022-11-28T13:46:37.758Z,3.05
2022-11-28T13:47:40.827Z,2.60
2022-11-28T13:50:23.373Z,2.95
2022-11-28T13:51:32.024Z,2.50
2022-11-28T13:52:43.041Z,3.00
2022-11-28T13:53:47.466Z,2.55
2022-11-28T13:54:56.223Z,2.85
2022-11-28T13:56:08.179Z,3.10
2022-11-28T13:57:30.219Z,2.83
2022-11-28T13:58:43.979Z,3.08
2022-11-28T13:59:56.712Z,2.53
2022-11-28T14:01:08.181Z,3.35
2022-11-28T14:02:41.947Z,3.17
2022-11-28T14:03:53.408Z,3.22
2022-11-28T14:04:56.447Z,2.90
2022-11-28T14:06:02.813Z,2.72
2022-11-28T14:07:07.951Z,2.72
2022-11-28T14:08:32.718Z,2.92
2022-11-28T14:09:52.222Z,3.13
2022-11-28T14:11:05.625Z,3.28
2022-11-28T14:12:15.647Z,3.05
2022-11-28T14:13:54.665Z,3.22
2022-11-28T14:15:22.230Z,2.83
2022-11-28T14:16:46.886Z,3.00
2022-11-28T14:18:39.253Z,3.22
2022-11-28T14:20:23.277Z,3.05
2022-11-28T14:21:40.998Z,3.45
2022-11-28T14:22:52.726Z,3.05
2022-11-28T14:24:43.882Z,2.92
2022-11-28T14:25:50.753Z,3.13
2022-11-28T14:27:03.203Z,2.90
2022-11-28T14:28:17.486Z,2.97
2022-11-28T14:29:36.437Z,3.20
2022-11-28T14:30:44.934Z,4.03
2022-11-28T14:32:13.648Z,3.33
2022-11-28T14:33:24.042Z,3.47
2022-11-28T14:34:37.591Z,3.58
2022-11-28T14:35:58.310Z,3.55
2022-11-28T14:37:20.556Z,3.50
2022-11-28T14:38:35.098Z,3.50
2022-11-28T14:39:39.477Z,4.03
2022-11-28T14:41:05.218Z,3.92
2022-11-28T14:42:10.090Z,2.80
2022-11-28T14:43:24.571Z,3.60
2022-11-28T14:44:52.411Z,3.72
2022-11-28T14:46:19.731Z,3.90
2022-11-28T14:47:43.157Z,3.45
2022-11-28T14:49:00.958Z,4.78
2022-11-28T14:50:06.438Z,3.78
2022-11-28T14:51:10.794Z,3.28
2022-11-28T14:52:38.940Z,3.55
2022-11-28T14:53:45.871Z,4.03
2022-11-28T14:54:50.541Z,3.80
2022-11-28T14:55:53.386Z,3.83
2022-11-28T14:56:59.984Z,3.78
2022-11-28T14:58:05.512Z,4.13
2022-11-28T14:59:12.371Z,4.00
2022-11-28T15:00:19.328Z,3.53
2022-11-28T15:02:03.644Z,4.00
2022-11-28T15:03:20.221Z,3.33
2022-11-28T15:04:55.331Z,3.50
2022-11-28T15:06:22.234Z,3.70
2022-11-28T15:07:49.688Z,3.17
2022-11-28T15:09:22.487Z,3.40
2022-11-28T15:10:37.249Z,3.08
2022-11-28T15:12:00.582Z,3.67
2022-11-28T15:13:26.114Z,3.40
2022-11-28T15:14:32.451Z,5.07
2022-11-28T15:15:35.560Z,3.90
2022-11-28T15:16:49.645Z,5.28
2022-11-28T15:17:55.971Z,3.38
2022-11-28T15:19:22.561Z,3.80
2022-11-28T15:20:42.734Z,4.13
2022-11-28T15:21:48.475Z,3.72
2022-11-28T15:22:51.859Z,3.88
2022-11-28T15:23:56.082Z,4.05
2022-11-28T15:24:59.656Z,4.03
2022-11-28T15:26:03.765Z,4.15
2022-11-28T15:27:07.789Z,4.45
2022-11-28T15:28:21.078Z,4.05
2022-11-28T15:29:28.607Z,3.83
2022-11-28T15:30:32.257Z,3.55
2022-11-28T15:31:35.511Z,4.38
2022-11-28T15:32:42.864Z,4.13
2022-11-28T15:33:45.914Z,4.35
2022-11-28T15:34:56.098Z,4.43
2022-11-28T15:36:15.467Z,4.47
2022-11-28T15:37:19.965Z,4.00
2022-11-28T15:38:24.020Z,3.90
2022-11-28T15:39:29.769Z,4.28
2022-11-28T15:40:37.139Z,3.75
2022-11-28T15:41:40.108Z,4.95
2022-11-28T15:42:45.462Z,4.72
2022-11-28T15:43:49.750Z,4.28
2022-11-28T15:45:20.885Z,5.53